KGCN

Grand Canyon National Park Airport

Grand Canyon, Arizona, USA
METAR KGCN 141154Z AUTO 00000KT 10SM CLR M09/M13 A3038 RMK AO2 SLP301 T10891128 11067 21100 53000
Observed Flight Rules
Dec-14 @ 11:54 UTC (31 minutes ago) Visual Flight Rules
Visibility Clouds
10 miles
  • Clear skies
Temperatures Readings
Current -9°C / 16°F
Dewpoint -13°C / 9°F
Humidity 73%
Altimeter 30.38" Hg
Pressure 1030.1 hPa
Elevation 2016
METAR KGCN 141154Z AUTO 00000KT 10SM CLR M09/M13 A3038 RMK AO2 SLP301 T10891128 11067 21100 53000
Observed Flight Rules
Dec-14 @ 11:54 UTC
(31 minutes ago)
VFR
Clouds
  • Clear skies
Temperature Dewpoint
-9°C / 16°F -13°C / 9°F
Humidity Altimeter Pressure
73% 30.38" Hg 1030.1 hPa